Time;durP1;ratioP1;P1;durP2;ratioP2;P2;SDS_P1;SDS_P2;PMS_P1;PMS_P2;Temp;Humidity;BMP_temperature;BMP_pressure;BME280_temperature;BME280_humidity;BME280_pressure;Samples;Min_cycle;Max_cycle;Signal;HPM_P1;HPM_P2
2023/01/25 00:01:44;;;;;;;9.15;6.88;;;8.60;82.50;;;;;;6293847;22;20003;-78
2023/01/25 00:04:09;;;;;;;8.32;6.28;;;8.60;82.50;;;;;;6292888;22;20000;-80
2023/01/25 00:06:35;;;;;;;9.25;6.57;;;8.70;82.60;;;;;;6292143;22;19999;-80
2023/01/25 00:09:01;;;;;;;9.48;7.30;;;8.60;82.50;;;;;;6293154;22;20022;-80
2023/01/25 00:11:26;;;;;;;8.85;6.53;;;8.70;82.70;;;;;;6292822;22;19999;-79
2023/01/25 00:13:53;;;;;;;8.80;6.53;;;8.60;82.60;;;;;;6292106;22;20337;-81
2023/01/25 00:16:18;;;;;;;8.77;6.65;;;8.60;82.70;;;;;;6290565;22;20339;-79
2023/01/25 00:18:44;;;;;;;9.07;6.82;;;8.60;82.60;;;;;;6296646;22;20030;-81
2023/01/25 00:21:21;;;;;;;9.07;6.78;;;8.60;82.50;;;;;;6294597;22;20011;-80
2023/01/25 00:23:46;;;;;;;8.50;6.72;;;8.60;82.60;;;;;;6290913;22;20029;-79
2023/01/25 00:26:12;;;;;;;9.43;6.95;;;8.70;82.60;;;;;;6289063;22;20007;-81
2023/01/25 00:28:38;;;;;;;9.23;6.95;;;8.60;82.60;;;;;;6290788;22;20006;-81
2023/01/25 00:31:06;;;;;;;9.30;7.13;;;8.60;82.50;;;;;;6291069;22;20003;-81
2023/01/25 00:33:36;;;;;;;9.55;7.18;;;8.70;82.60;;;;;;6288899;22;20033;-80
2023/01/25 00:36:02;;;;;;;9.00;6.75;;;8.60;83.10;;;;;;6288414;22;20038;-80
2023/01/25 00:38:33;;;;;;;9.40;7.15;;;8.70;82.70;;;;;;6290124;22;20003;-79
2023/01/25 00:40:59;;;;;;;9.48;7.32;;;8.60;82.50;;;;;;6290816;22;19999;-80
2023/01/25 00:43:25;;;;;;;9.75;7.20;;;8.60;82.60;;;;;;6316669;22;20469;-78
2023/01/25 00:45:50;;;;;;;9.73;7.45;;;8.60;82.60;;;;;;6296747;22;20003;-81
2023/01/25 00:48:16;;;;;;;9.63;7.30;;;8.60;82.60;;;;;;6294527;22;20026;-79
2023/01/25 00:50:41;;;;;;;10.02;7.30;;;8.60;82.50;;;;;;6318134;22;20003;-81
2023/01/25 00:53:06;;;;;;;9.13;6.75;;;8.70;82.60;;;;;;6288678;22;20041;-80
2023/01/25 00:55:32;;;;;;;9.68;7.28;;;8.70;82.50;;;;;;6292126;22;20003;-80
2023/01/25 00:57:57;;;;;;;9.23;7.22;;;8.70;82.60;;;;;;6295696;22;19984;-81
2023/01/25 01:00:23;;;;;;;9.82;7.72;;;8.60;82.60;;;;;;6292153;22;19999;-80
2023/01/25 01:02:48;;;;;;;9.82;7.22;;;8.60;82.50;;;;;;6292159;22;20018;-80
2023/01/25 01:05:14;;;;;;;9.68;7.20;;;8.50;82.40;;;;;;6288930;22;20006;-78
2023/01/25 01:07:40;;;;;;;9.30;6.82;;;8.60;82.50;;;;;;6291010;22;20499;-79
2023/01/25 01:10:06;;;;;;;9.30;7.00;;;8.70;82.60;;;;;;6287669;22;20027;-79
2023/01/25 01:12:31;;;;;;;9.32;7.15;;;8.60;82.50;;;;;;6288453;22;20010;-79
2023/01/25 01:14:57;;;;;;;9.43;6.95;;;8.60;82.50;;;;;;6288332;22;20007;-80
2023/01/25 01:17:23;;;;;;;8.93;6.88;;;8.70;82.60;;;;;;6293368;22;20052;-79
2023/01/25 01:19:48;;;;;;;9.05;7.03;;;8.60;82.40;;;;;;6293481;22;20018;-79
2023/01/25 01:22:14;;;;;;;9.48;7.22;;;8.60;82.40;;;;;;6289080;22;20026;-79
2023/01/25 01:24:40;;;;;;;10.10;7.18;;;8.70;82.50;;;;;;6286640;22;20003;-81
2023/01/25 01:27:05;;;;;;;9.32;7.22;;;8.50;83.10;;;;;;6285346;22;19996;-81
2023/01/25 01:29:31;;;;;;;9.38;7.10;;;8.60;82.50;;;;;;6286476;22;20000;-80
2023/01/25 01:31:56;;;;;;;9.93;7.25;;;8.70;82.70;;;;;;6286924;22;20430;-80
2023/01/25 01:34:22;;;;;;;9.25;7.30;;;8.60;82.50;;;;;;6288223;22;20010;-81
2023/01/25 01:36:47;;;;;;;9.43;7.13;;;8.70;82.60;;;;;;6290400;22;20000;-81
2023/01/25 01:39:13;;;;;;;9.32;7.03;;;8.70;82.60;;;;;;6303259;22;20006;-82
2023/01/25 01:41:39;;;;;;;9.65;7.57;;;8.60;82.50;;;;;;6294104;22;20024;-80
2023/01/25 01:44:04;;;;;;;8.95;7.00;;;8.60;82.50;;;;;;6291167;22;20133;-81
2023/01/25 01:46:36;;;;;;;9.63;7.43;;;8.70;82.50;;;;;;6317115;22;20049;-79
2023/01/25 01:49:13;;;;;;;9.75;7.47;;;8.70;82.60;;;;;;6287922;22;20007;-80
2023/01/25 01:51:57;;;;;;;9.30;7.32;;;8.60;82.50;;;;;;6317230;22;20023;-80
2023/01/25 01:54:27;;;;;;;9.70;7.57;;;8.60;82.50;;;;;;6319780;22;20003;-81
2023/01/25 01:57:04;;;;;;;9.68;7.00;;;8.60;82.40;;;;;;6290901;22;20011;-79
2023/01/25 01:59:40;;;;;;;10.50;7.78;;;8.60;82.40;;;;;;6287760;22;20007;-81
2023/01/25 02:02:06;;;;;;;9.32;7.25;;;8.60;82.50;;;;;;6302891;22;20072;-82
2023/01/25 02:04:32;;;;;;;9.65;7.63;;;8.60;82.40;;;;;;6302355;22;20623;-82
2023/01/25 02:07:13;;;;;;;10.10;7.05;;;8.60;82.50;;;;;;6302460;22;19999;-83
2023/01/25 02:09:39;;;;;;;10.05;7.57;;;8.60;82.50;;;;;;6300556;22;20505;-80
2023/01/25 02:12:06;;;;;;;16.60;8.00;;;8.70;82.50;;;;;;6300131;22;20067;-82
2023/01/25 02:14:33;;;;;;;9.50;7.30;;;8.60;82.50;;;;;;6298618;22;20011;-81
2023/01/25 02:16:59;;;;;;;9.02;7.05;;;8.60;82.50;;;;;;6298602;22;20027;-81
2023/01/25 02:19:30;;;;;;;9.95;7.43;;;8.60;82.60;;;;;;6325673;22;20007;-82
2023/01/25 02:21:57;;;;;;;9.70;7.68;;;8.60;82.50;;;;;;6297538;22;20472;-80
2023/01/25 02:24:28;;;;;;;9.82;7.38;;;8.70;82.60;;;;;;6325725;22;20003;-82
2023/01/25 02:26:54;;;;;;;9.88;7.38;;;8.70;82.50;;;;;;6296596;22;20003;-79
2023/01/25 02:29:22;;;;;;;10.93;7.18;;;8.60;82.60;;;;;;6324027;22;20027;-81
2023/01/25 02:31:51;;;;;;;9.63;7.75;;;8.60;82.40;;;;;;6296855;22;19999;-80
2023/01/25 02:34:17;;;;;;;9.80;7.38;;;8.60;82.40;;;;;;6296483;22;20433;-81
2023/01/25 02:36:43;;;;;;;10.32;7.82;;;8.60;82.40;;;;;;6295561;22;20014;-80
2023/01/25 02:39:14;;;;;;;9.15;7.18;;;8.60;82.40;;;;;;6296514;22;20063;-82
2023/01/25 02:41:44;;;;;;;;;;;8.70;82.50;;;;;;6298776;22;20007;-82
2023/01/25 02:44:20;;;;;;;9.52;7.05;;;8.70;82.60;;;;;;6297376;22;19906;-80
2023/01/25 02:46:46;;;;;;;11.20;7.80;;;8.60;82.50;;;;;;6294250;22;19999;-80
2023/01/25 02:49:13;;;;;;;10.20;7.88;;;8.60;82.50;;;;;;6294641;22;20004;-82
2023/01/25 02:51:41;;;;;;;9.55;7.45;;;8.70;82.50;;;;;;6302649;22;20026;-82
2023/01/25 02:54:09;;;;;;;10.05;7.57;;;8.80;82.60;;;;;;6328788;22;20037;-82
2023/01/25 02:56:35;;;;;;;9.60;7.43;;;8.60;82.40;;;;;;6300007;22;20014;-83
2023/01/25 02:59:04;;;;;;;10.63;7.90;;;8.60;82.40;;;;;;6300557;22;20010;-81
2023/01/25 03:01:34;;;;;;;10.07;7.97;;;8.60;82.40;;;;;;6299865;22;20006;-81
2023/01/25 03:04:00;;;;;;;9.48;7.38;;;8.60;82.60;;;;;;6299674;22;20007;-80
2023/01/25 03:06:25;;;;;;;9.70;7.50;;;8.60;82.40;;;;;;6297759;22;19999;-82
2023/01/25 03:08:51;;;;;;;9.55;7.55;;;8.60;82.40;;;;;;6298407;22;20077;-81
2023/01/25 03:11:16;;;;;;;9.80;7.57;;;8.60;82.50;;;;;;6327868;22;19995;-83
2023/01/25 03:13:42;;;;;;;10.80;8.10;;;8.60;82.50;;;;;;6326054;22;20007;-82
2023/01/25 03:16:10;;;;;;;10.57;8.02;;;8.60;82.50;;;;;;6296909;22;20117;-81
2023/01/25 03:18:36;;;;;;;10.30;7.43;;;8.60;82.50;;;;;;6297992;22;20393;-81
2023/01/25 03:21:10;;;;;;;10.30;7.68;;;8.60;82.50;;;;;;6296254;22;20007;-82
2023/01/25 03:23:36;;;;;;;9.95;7.50;;;8.60;82.50;;;;;;6297275;22;20007;-81
2023/01/25 03:26:11;;;;;;;9.93;7.28;;;8.60;82.50;;;;;;6294741;22;20071;-82
2023/01/25 03:28:38;;;;;;;10.23;7.80;;;8.60;82.50;;;;;;6295763;22;20061;-83
2023/01/25 03:31:04;;;;;;;9.60;7.15;;;8.60;82.50;;;;;;6294257;22;19999;-80
2023/01/25 03:33:30;;;;;;;10.23;7.68;;;8.60;82.60;;;;;;6293828;22;19999;-80
2023/01/25 03:35:56;;;;;;;10.07;7.70;;;8.60;82.50;;;;;;6292196;22;20010;-79
2023/01/25 03:38:22;;;;;;;10.10;7.68;;;8.70;82.70;;;;;;6294389;22;20542;-81
2023/01/25 03:40:47;;;;;;;10.13;7.28;;;8.60;82.60;;;;;;6290020;22;19999;-81
2023/01/25 03:43:13;;;;;;;10.40;7.60;;;8.60;82.40;;;;;;6291233;22;20094;-81
2023/01/25 03:45:39;;;;;;;10.52;7.75;;;8.60;82.50;;;;;;6291507;22;20113;-80
2023/01/25 03:48:05;;;;;;;10.77;8.35;;;8.60;82.50;;;;;;6291886;22;20003;-80
2023/01/25 03:50:31;;;;;;;10.80;7.68;;;8.60;82.50;;;;;;6290771;22;20437;-80
2023/01/25 03:53:06;;;;;;;9.90;7.40;;;8.70;82.40;;;;;;6319129;22;20003;-81
2023/01/25 03:55:33;;;;;;;10.18;8.00;;;8.60;82.40;;;;;;6293383;22;20440;-81
2023/01/25 03:57:58;;;;;;;11.02;8.00;;;8.60;82.40;;;;;;6296581;22;20003;-81
2023/01/25 04:00:24;;;;;;;10.45;7.68;;;8.60;82.40;;;;;;6290272;22;19999;-80
2023/01/25 04:02:49;;;;;;;10.00;7.72;;;8.60;82.50;;;;;;6290169;22;20026;-80
2023/01/25 04:05:15;;;;;;;10.98;8.23;;;8.60;82.40;;;;;;6289735;22;20011;-80
2023/01/25 04:07:40;;;;;;;10.68;8.13;;;8.60;82.50;;;;;;6289611;22;20003;-80
2023/01/25 04:10:07;;;;;;;10.70;8.13;;;8.60;82.40;;;;;;6289881;22;20031;-81
2023/01/25 04:12:32;;;;;;;11.73;8.63;;;8.60;82.40;;;;;;6281123;22;20003;-79
2023/01/25 04:14:57;;;;;;;10.77;8.25;;;8.80;82.50;;;;;;6279903;22;20014;-80
2023/01/25 04:17:23;;;;;;;11.73;8.25;;;8.60;82.40;;;;;;6288890;22;19999;-81
2023/01/25 04:19:49;;;;;;;10.18;7.65;;;8.60;82.60;;;;;;6275217;22;20117;-78
2023/01/25 04:22:15;;;;;;;10.55;7.95;;;8.60;82.50;;;;;;6281228;22;20007;-78
2023/01/25 04:24:41;;;;;;;11.32;8.35;;;8.60;82.50;;;;;;6276033;22;20486;-77
2023/01/25 04:27:07;;;;;;;10.30;8.00;;;8.60;82.60;;;;;;6273573;22;20007;-80
2023/01/25 04:29:33;;;;;;;10.50;7.97;;;8.60;82.50;;;;;;6306116;22;19999;-80
2023/01/25 04:31:59;;;;;;;11.52;8.75;;;8.50;82.40;;;;;;6278913;22;20056;-79
2023/01/25 04:34:24;;;;;;;10.38;8.07;;;8.60;82.40;;;;;;6280992;22;20333;-80
2023/01/25 04:36:50;;;;;;;10.52;8.05;;;8.60;82.50;;;;;;6282794;22;20003;-76
2023/01/25 04:39:16;;;;;;;11.23;8.52;;;8.60;82.30;;;;;;6276536;22;20056;-77
2023/01/25 04:41:41;;;;;;;10.45;7.80;;;8.60;82.30;;;;;;6278793;22;20022;-80
2023/01/25 04:44:07;;;;;;;10.38;8.00;;;8.60;82.30;;;;;;6281745;22;20094;-82
2023/01/25 04:46:32;;;;;;;11.88;8.20;;;8.60;82.30;;;;;;6280658;22;20315;-78
2023/01/25 04:48:58;;;;;;;10.63;8.18;;;8.60;82.30;;;;;;6279277;22;20547;-78
2023/01/25 04:51:23;;;;;;;10.63;8.15;;;8.60;82.50;;;;;;6284345;22;19988;-80
2023/01/25 04:53:49;;;;;;;11.30;8.02;;;8.70;82.40;;;;;;6287054;22;20041;-80
2023/01/25 04:56:14;;;;;;;10.63;7.93;;;8.60;82.30;;;;;;6283633;22;20029;-80
2023/01/25 04:58:40;;;;;;;11.35;8.20;;;8.60;82.30;;;;;;6280401;22;20363;-79
2023/01/25 05:01:06;;;;;;;11.52;8.50;;;8.60;82.40;;;;;;6274230;22;20480;-77
2023/01/25 05:03:31;;;;;;;11.10;8.40;;;8.60;82.30;;;;;;6275658;22;20019;-78
2023/01/25 05:05:57;;;;;;;10.07;7.78;;;8.60;82.40;;;;;;6276038;22;19999;-78
2023/01/25 05:08:22;;;;;;;11.35;8.15;;;8.60;82.40;;;;;;6304510;22;19996;-78
2023/01/25 05:10:48;;;;;;;10.73;7.88;;;8.60;82.30;;;;;;6277861;22;20003;-77
2023/01/25 05:13:13;;;;;;;11.20;8.55;;;8.60;82.30;;;;;;6279346;22;19999;-79
2023/01/25 05:15:39;;;;;;;11.80;8.75;;;8.70;82.40;;;;;;6283212;22;20003;-81
2023/01/25 05:18:04;;;;;;;11.80;8.95;;;8.60;82.40;;;;;;6284352;22;20003;-78
2023/01/25 05:20:30;;;;;;;10.95;8.55;;;8.70;82.90;;;;;;6289167;22;20118;-82
2023/01/25 05:22:55;;;;;;;10.43;8.10;;;8.60;82.30;;;;;;6297358;22;20007;-83
2023/01/25 05:28:06;;;;;;;9.88;7.40;;;8.60;82.40;;;;;;6322574;22;20049;-81
2023/01/25 05:30:32;;;;;;;11.50;8.18;;;8.60;82.40;;;;;;6292591;22;20616;-81
2023/01/25 05:32:57;;;;;;;11.25;8.05;;;8.60;82.40;;;;;;6295154;22;20007;-84
2023/01/25 05:35:23;;;;;;;12.02;8.75;;;8.60;82.40;;;;;;6321796;22;20074;-82
2023/01/25 05:37:48;;;;;;;10.32;7.70;;;8.60;82.30;;;;;;6320964;22;20589;-84
2023/01/25 05:40:14;;;;;;;10.50;8.40;;;8.60;82.30;;;;;;6293545;22;19995;-81
2023/01/25 05:42:39;;;;;;;11.00;8.30;;;8.60;82.30;;;;;;6292097;22;20089;-83
2023/01/25 05:45:06;;;;;;;10.68;8.38;;;8.60;82.40;;;;;;6291298;22;20014;-81
2023/01/25 05:47:31;;;;;;;11.38;8.05;;;8.60;82.50;;;;;;6290593;22;20183;-81
2023/01/25 05:49:57;;;;;;;11.43;8.50;;;8.60;82.30;;;;;;6290665;22;20386;-81
2023/01/25 05:52:22;;;;;;;11.48;8.73;;;8.60;82.30;;;;;;6289938;22;20078;-82
2023/01/25 05:54:48;;;;;;;12.60;9.13;;;8.60;82.40;;;;;;6286917;22;20090;-78
2023/01/25 05:57:14;;;;;;;11.95;7.97;;;8.60;82.30;;;;;;6285185;22;20853;-80
2023/01/25 05:59:40;;;;;;;10.73;8.15;;;8.60;82.30;;;;;;6289296;22;20015;-82
2023/01/25 06:02:05;;;;;;;11.35;8.57;;;8.60;82.40;;;;;;6288735;22;20034;-83
2023/01/25 06:04:31;;;;;;;11.48;8.60;;;8.60;82.30;;;;;;6290394;22;20063;-82
2023/01/25 06:06:57;;;;;;;10.30;7.82;;;8.60;82.40;;;;;;6288851;22;20007;-80
2023/01/25 06:09:22;;;;;;;11.18;8.38;;;8.60;82.40;;;;;;6295080;22;20007;-83
2023/01/25 06:11:48;;;;;;;10.20;7.68;;;8.60;82.20;;;;;;6292651;22;20126;-80
2023/01/25 06:14:14;;;;;;;11.20;8.30;;;8.60;82.40;;;;;;6289491;22;20003;-80
2023/01/25 06:16:39;;;;;;;11.18;8.32;;;8.60;82.40;;;;;;6290435;22;20323;-84
2023/01/25 06:19:06;;;;;;;12.00;8.15;;;8.60;82.40;;;;;;6290670;22;20007;-82
2023/01/25 06:21:35;;;;;;;11.98;8.32;;;8.60;82.50;;;;;;6291840;22;20037;-79
2023/01/25 06:24:01;;;;;;;11.00;7.90;;;8.60;82.50;;;;;;6291086;22;20007;-85
2023/01/25 06:26:27;;;;;;;11.07;8.25;;;8.60;82.50;;;;;;6286999;22;20000;-82
2023/01/25 06:28:53;;;;;;;11.40;8.43;;;8.60;82.50;;;;;;6285903;22;19999;-80
2023/01/25 06:31:18;;;;;;;11.23;8.13;;;8.60;82.40;;;;;;6283793;22;20015;-81
2023/01/25 06:33:48;;;;;;;11.27;8.20;;;8.60;82.40;;;;;;6312127;22;20091;-81
2023/01/25 06:36:15;;;;;;;11.70;8.90;;;8.60;82.40;;;;;;6286734;22;20018;-81
2023/01/25 06:38:41;;;;;;;11.27;7.85;;;8.60;82.40;;;;;;6282922;22;20434;-76
2023/01/25 06:41:10;;;;;;;12.20;8.75;;;8.60;82.50;;;;;;6286349;22;20014;-79
2023/01/25 06:43:36;;;;;;;11.63;8.48;;;8.60;82.40;;;;;;6281929;22;20090;-81
2023/01/25 06:46:04;;;;;;;11.93;8.75;;;8.60;82.40;;;;;;6280797;22;20245;-75
2023/01/25 06:48:30;;;;;;;11.65;8.52;;;8.60;82.40;;;;;;6281380;22;20010;-80
2023/01/25 06:50:58;;;;;;;10.35;7.63;;;8.60;82.50;;;;;;6294800;22;20079;-80
2023/01/25 06:53:29;;;;;;;12.82;8.57;;;8.60;82.40;;;;;;6298542;22;19999;-79
2023/01/25 06:55:58;;;;;;;12.68;8.25;;;8.50;82.40;;;;;;6291844;22;20494;-84
2023/01/25 06:58:23;;;;;;;11.57;8.73;;;8.60;82.30;;;;;;6286213;22;20009;-82
2023/01/25 07:00:49;;;;;;;11.20;8.27;;;8.60;82.40;;;;;;6290124;22;20408;-81
2023/01/25 07:03:15;;;;;;;14.05;9.23;;;8.60;82.30;;;;;;6289837;22;20018;-82
2023/01/25 07:05:40;;;;;;;12.05;8.60;;;8.60;82.30;;;;;;6288346;22;20334;-80
2023/01/25 07:08:06;;;;;;;12.98;9.02;;;8.60;82.30;;;;;;6289521;22;19998;-82
2023/01/25 07:10:31;;;;;;;13.88;9.10;;;8.60;82.40;;;;;;6297357;22;20014;-82
2023/01/25 07:12:57;;;;;;;13.75;8.77;;;8.60;82.30;;;;;;6293894;22;20622;-81
2023/01/25 07:15:23;;;;;;;12.65;8.52;;;8.60;82.40;;;;;;6290436;22;19999;-81
2023/01/25 07:17:48;;;;;;;12.20;8.90;;;8.60;82.40;;;;;;6289844;22;20029;-80
2023/01/25 07:20:14;;;;;;;12.68;8.88;;;8.60;82.40;;;;;;6289202;22;20003;-83
2023/01/25 07:22:39;;;;;;;11.70;8.70;;;8.60;82.40;;;;;;6288283;22;20003;-81
2023/01/25 07:25:05;;;;;;;13.45;8.65;;;8.60;82.40;;;;;;6292546;22;20011;-79
2023/01/25 07:27:34;;;;;;;12.18;8.98;;;8.60;82.50;;;;;;6293440;22;20334;-80
2023/01/25 07:30:01;;;;;;;12.68;9.00;;;8.60;82.50;;;;;;6319656;22;19995;-80
2023/01/25 07:32:27;;;;;;;12.35;9.05;;;8.60;82.50;;;;;;6289414;22;20003;-84
2023/01/25 07:34:53;;;;;;;13.07;8.95;;;8.60;82.40;;;;;;6297931;22;20013;-81
2023/01/25 07:37:18;;;;;;;12.63;8.63;;;8.60;82.50;;;;;;6316219;22;20028;-83
2023/01/25 07:39:49;;;;;;;12.68;8.60;;;8.60;82.50;;;;;;6287105;22;20340;-81
2023/01/25 07:42:14;;;;;;;12.70;8.93;;;8.50;82.40;;;;;;6287247;22;20007;-80
2023/01/25 07:44:40;;;;;;;13.02;8.65;;;8.60;82.50;;;;;;6299500;22;20006;-82
2023/01/25 07:47:06;;;;;;;13.57;8.75;;;8.60;82.50;;;;;;6293406;22;20086;-82
2023/01/25 07:49:31;;;;;;;12.13;8.52;;;8.60;82.50;;;;;;6289247;22;20045;-80
2023/01/25 07:51:57;;;;;;;13.15;8.70;;;8.60;82.50;;;;;;6286955;22;19995;-80
2023/01/25 07:54:22;;;;;;;13.10;9.07;;;8.60;82.50;;;;;;6287577;22;20342;-80
2023/01/25 07:56:48;;;;;;;12.50;9.02;;;8.50;82.50;;;;;;6288996;22;20413;-81
2023/01/25 07:59:14;;;;;;;12.82;9.18;;;8.60;82.50;;;;;;6295524;22;19994;-81
2023/01/25 08:01:40;;;;;;;12.98;8.95;;;8.60;82.50;;;;;;6289625;22;20003;-81
2023/01/25 08:04:05;;;;;;;12.52;9.40;;;8.60;82.50;;;;;;6288697;22;20007;-81
2023/01/25 08:06:34;;;;;;;12.43;8.98;;;8.60;82.50;;;;;;6286385;22;20090;-80
2023/01/25 08:09:02;;;;;;;12.55;8.77;;;8.60;82.60;;;;;;6297088;22;20002;-82
2023/01/25 08:11:29;;;;;;;13.20;9.55;;;8.60;82.60;;;;;;6292637;22;19999;-82
2023/01/25 08:13:55;;;;;;;12.52;8.68;;;8.60;82.60;;;;;;6290671;22;20030;-83
2023/01/25 08:16:24;;;;;;;12.20;8.75;;;8.60;82.60;;;;;;6292001;22;20353;-80
2023/01/25 08:18:52;;;;;;;12.10;8.77;;;8.60;82.60;;;;;;6289466;22;20406;-80
2023/01/25 08:21:18;;;;;;;11.77;8.85;;;8.50;82.60;;;;;;6293481;22;20014;-84
2023/01/25 08:23:44;;;;;;;13.30;9.55;;;8.50;82.60;;;;;;6297736;22;20242;-82
2023/01/25 08:26:13;;;;;;;11.98;8.70;;;8.60;82.60;;;;;;6293570;22;20394;-82
2023/01/25 08:28:39;;;;;;;13.40;9.40;;;8.60;82.70;;;;;;6293362;22;20077;-81
2023/01/25 08:31:22;;;;;;;13.35;9.50;;;8.60;82.70;;;;;;6294389;22;19999;-81
2023/01/25 08:33:48;;;;;;;12.98;9.48;;;8.60;82.70;;;;;;6289459;22;20023;-82
2023/01/25 08:36:16;;;;;;;12.15;8.73;;;8.60;82.60;;;;;;6285726;22;20003;-81
2023/01/25 08:38:42;;;;;;;13.50;8.75;;;8.60;82.70;;;;;;6289529;22;20062;-82
2023/01/25 08:41:11;;;;;;;11.93;8.25;;;8.60;82.60;;;;;;6299850;22;20007;-82
2023/01/25 08:43:37;;;;;;;12.90;9.23;;;8.60;82.70;;;;;;6299638;22;20029;-82
2023/01/25 08:46:03;;;;;;;13.15;9.05;;;8.70;82.70;;;;;;6297805;22;20003;-82
2023/01/25 08:48:28;;;;;;;12.07;9.00;;;8.60;82.70;;;;;;6298667;22;20019;-81
2023/01/25 08:50:54;;;;;;;12.48;8.82;;;8.60;82.70;;;;;;6298302;22;20010;-83
2023/01/25 08:53:20;;;;;;;12.85;8.63;;;8.60;82.60;;;;;;6297590;22;20000;-82
2023/01/25 08:55:45;;;;;;;12.55;8.90;;;8.60;82.70;;;;;;6295735;22;20014;-81
2023/01/25 08:58:12;;;;;;;13.60;9.20;;;8.50;82.60;;;;;;6295284;22;20078;-80
2023/01/25 09:00:39;;;;;;;12.57;8.70;;;8.60;82.70;;;;;;6298016;22;20014;-82
2023/01/25 09:03:06;;;;;;;13.45;9.10;;;8.60;82.70;;;;;;6296351;22;20015;-82
2023/01/25 09:05:36;;;;;;;13.55;8.88;;;8.60;82.70;;;;;;6293792;22;20007;-83
2023/01/25 09:08:03;;;;;;;12.18;8.85;;;8.60;82.70;;;;;;6293952;22;20001;-81
2023/01/25 09:10:29;;;;;;;12.70;9.00;;;8.60;82.70;;;;;;6325038;22;19995;-83
2023/01/25 09:12:55;;;;;;;12.35;9.00;;;8.60;82.70;;;;;;6297627;22;20063;-80
2023/01/25 09:15:21;;;;;;;11.95;8.55;;;8.60;82.70;;;;;;6292209;22;20441;-82
2023/01/25 09:17:53;;;;;;;12.20;8.80;;;8.60;82.70;;;;;;6292324;22;20000;-82
2023/01/25 09:20:19;;;;;;;12.38;9.00;;;8.60;82.70;;;;;;6290962;22;20030;-80
2023/01/25 09:22:45;;;;;;;12.95;8.75;;;8.60;82.70;;;;;;6291900;22;20095;-80
2023/01/25 09:25:11;;;;;;;12.93;8.82;;;8.60;82.60;;;;;;6290821;22;20140;-79
2023/01/25 09:27:36;;;;;;;13.32;9.30;;;8.60;82.60;;;;;;6291738;22;20007;-82
2023/01/25 09:30:03;;;;;;;13.75;9.07;;;8.60;82.70;;;;;;6297625;22;20043;-83
2023/01/25 09:32:29;;;;;;;13.20;8.95;;;8.60;82.60;;;;;;6297420;22;20034;-83
2023/01/25 09:34:54;;;;;;;12.65;9.05;;;8.60;82.60;;;;;;6297291;22;20004;-82
2023/01/25 09:37:20;;;;;;;13.23;9.32;;;8.70;82.70;;;;;;6296272;22;19996;-83
2023/01/25 09:39:45;;;;;;;12.95;9.15;;;8.60;82.70;;;;;;6296959;22;20010;-80
2023/01/25 09:42:27;;;;;;;12.68;8.75;;;8.60;82.70;;;;;;6296908;22;20007;-82
2023/01/25 09:45:08;;;;;;;13.05;8.95;;;8.60;82.70;;;;;;6322637;22;20531;-82
2023/01/25 09:47:58;;;;;;;11.30;8.23;;;8.60;82.70;;;;;;6296019;22;20006;-82
2023/01/25 09:50:59;;;;;;;13.00;9.23;;;8.60;82.70;;;;;;6297081;22;20319;-82
2023/01/25 09:53:32;;;;;;;12.65;8.98;;;8.60;82.60;;;;;;6298060;22;20041;-81
2023/01/25 09:56:02;;;;;;;12.25;8.63;;;8.60;82.70;;;;;;6293150;22;20003;-81
2023/01/25 09:58:35;;;;;;;13.35;9.32;;;8.60;82.80;;;;;;6293201;22;20388;-81
2023/01/25 10:01:33;;;;;;;12.00;8.50;;;8.50;82.70;;;;;;6294810;22;19999;-81
2023/01/25 10:04:24;;;;;;;11.88;8.82;;;8.60;82.80;;;;;;6283348;22;20033;-80
2023/01/25 10:06:53;;;;;;;13.00;8.93;;;8.60;82.80;;;;;;6280934;22;20003;-83
2023/01/25 10:09:36;;;;;;;12.98;9.27;;;8.60;82.80;;;;;;6293121;22;20082;-82
2023/01/25 10:12:18;;;;;;;11.20;8.35;;;8.60;82.80;;;;;;6293245;22;20003;-80
2023/01/25 10:14:43;;;;;;;12.20;8.70;;;8.60;82.70;;;;;;6321571;22;20315;-82
2023/01/25 10:17:27;;;;;;;13.98;9.07;;;8.60;82.70;;;;;;6292050;22;20025;-82
2023/01/25 10:20:07;;;;;;;12.90;8.75;;;8.60;82.70;;;;;;6291763;22;20010;-81
2023/01/25 10:22:44;;;;;;;12.95;8.98;;;8.60;82.80;;;;;;6290785;22;20010;-82
2023/01/25 10:25:22;;;;;;;12.80;8.57;;;8.60;82.80;;;;;;6291453;22;20013;-81
2023/01/25 10:27:57;;;;;;;12.27;8.50;;;8.60;82.80;;;;;;6291869;22;19995;-81
2023/01/25 10:30:29;;;;;;;13.15;9.35;;;8.60;82.70;;;;;;6290922;22;20026;-81
2023/01/25 10:32:59;;;;;;;13.15;9.57;;;8.60;82.80;;;;;;6290125;22;20005;-83
2023/01/25 10:35:35;;;;;;;11.43;8.20;;;8.60;82.80;;;;;;6288562;22;20031;-82
2023/01/25 10:38:10;;;;;;;11.98;8.35;;;8.60;82.80;;;;;;6300020;22;20007;-83
2023/01/25 10:40:43;;;;;;;13.88;9.52;;;8.60;82.80;;;;;;6293559;22;20094;-82
2023/01/25 10:43:18;;;;;;;11.68;8.55;;;8.60;82.80;;;;;;6289880;22;20087;-81
2023/01/25 10:45:45;;;;;;;12.13;8.80;;;8.60;82.70;;;;;;6290719;22;20038;-81
2023/01/25 10:48:25;;;;;;;11.98;8.90;;;8.60;82.70;;;;;;6292154;22;20007;-81
2023/01/25 10:50:53;;;;;;;12.65;8.43;;;8.60;82.70;;;;;;6290850;22;20046;-82
2023/01/25 10:53:24;;;;;;;12.60;8.98;;;8.60;82.70;;;;;;6288974;22;20369;-81
2023/01/25 10:56:11;;;;;;;14.07;9.30;;;8.60;82.80;;;;;;6288029;22;20061;-81
2023/01/25 10:58:38;;;;;;;12.93;8.80;;;8.60;82.80;;;;;;6325605;22;19995;-83
2023/01/25 11:01:06;;;;;;;12.63;9.20;;;8.60;82.70;;;;;;6297086;22;20000;-84
2023/01/25 11:03:37;;;;;;;13.10;8.88;;;8.60;82.80;;;;;;6296653;22;20014;-81
2023/01/25 11:06:03;;;;;;;12.02;8.70;;;8.60;82.80;;;;;;6286607;22;20445;-81
2023/01/25 11:08:29;;;;;;;15.55;9.48;;;8.60;82.80;;;;;;6287197;22;20055;-80
2023/01/25 11:10:55;;;;;;;13.00;9.05;;;8.60;82.80;;;;;;6288228;22;20480;-80
2023/01/25 11:13:26;;;;;;;13.60;9.20;;;8.60;82.80;;;;;;6287694;22;20434;-80
2023/01/25 11:16:08;;;;;;;14.07;9.15;;;8.60;82.80;;;;;;6294040;22;20082;-82
2023/01/25 11:18:34;;;;;;;13.20;8.85;;;8.60;82.80;;;;;;6288523;22;20003;-83
2023/01/25 11:21:17;;;;;;;12.80;8.90;;;8.60;82.80;;;;;;6287396;22;20022;-80
2023/01/25 11:24:02;;;;;;;13.52;8.93;;;8.60;82.80;;;;;;6286924;22;20090;-81
2023/01/25 11:26:28;;;;;;;12.48;8.70;;;8.60;82.80;;;;;;6313227;22;19999;-80
2023/01/25 11:29:19;;;;;;;14.13;8.63;;;8.60;82.70;;;;;;6288832;22;20056;-81
2023/01/25 11:31:48;;;;;;;12.25;8.70;;;8.60;82.80;;;;;;6288471;22;20449;-80
2023/01/25 11:34:16;;;;;;;12.68;8.70;;;8.60;82.80;;;;;;6286858;22;20340;-81
2023/01/25 11:37:09;;;;;;;11.93;8.65;;;8.60;82.80;;;;;;6287256;22;20085;-80
2023/01/25 11:39:44;;;;;;;12.18;8.55;;;8.60;82.80;;;;;;6287135;22;20005;-80
2023/01/25 11:42:30;;;;;;;11.77;8.18;;;8.60;82.80;;;;;;6288053;22;20064;-80
2023/01/25 11:45:04;;;;;;;12.02;8.18;;;8.60;82.80;;;;;;6287668;22;20007;-81
2023/01/25 11:47:53;;;;;;;13.45;9.07;;;8.70;82.90;;;;;;6291854;22;20426;-83
2023/01/25 11:50:29;;;;;;;12.93;8.93;;;8.60;82.80;;;;;;6288877;22;19995;-80
2023/01/25 11:53:32;;;;;;;12.27;8.05;;;8.60;82.80;;;;;;6286290;22;20092;-80
2023/01/25 11:56:02;;;;;;;12.55;8.68;;;8.60;82.80;;;;;;6311940;22;20035;-80
2023/01/25 11:58:43;;;;;;;12.07;8.75;;;8.60;82.80;;;;;;6286777;22;20134;-80
2023/01/25 12:01:41;;;;;;;12.60;8.75;;;8.60;82.80;;;;;;6291403;22;20000;-83
2023/01/25 12:04:18;;;;;;;11.77;8.20;;;8.60;82.90;;;;;;6289859;22;20027;-83
2023/01/25 12:07:02;;;;;;;12.68;8.75;;;8.60;82.80;;;;;;6297322;22;19999;-82
2023/01/25 12:09:36;;;;;;;13.43;9.00;;;8.60;82.90;;;;;;6297418;22;19999;-82
2023/01/25 12:12:14;;;;;;;12.73;8.98;;;8.70;82.90;;;;;;6325652;22;20050;-82
2023/01/25 12:15:00;;;;;;;11.65;8.02;;;8.60;82.80;;;;;;6297210;22;19999;-81
2023/01/25 12:17:59;;;;;;;12.52;8.38;;;8.60;82.90;;;;;;6296211;22;20046;-83
2023/01/25 12:20:39;;;;;;;12.80;8.57;;;8.60;82.80;;;;;;6295566;22;20067;-80
2023/01/25 12:23:33;;;;;;;12.27;8.27;;;8.60;82.80;;;;;;6294974;22;20341;-80
2023/01/25 12:26:11;;;;;;;12.55;8.32;;;8.60;82.80;;;;;;6294259;22;20003;-81
2023/01/25 12:28:53;;;;;;;12.57;8.77;;;8.60;82.80;;;;;;6294266;22;20006;-81
2023/01/25 12:31:25;;;;;;;11.73;8.25;;;8.60;82.80;;;;;;6293097;22;19996;-81
2023/01/25 12:33:58;;;;;;;12.05;8.27;;;8.60;82.80;;;;;;6294652;22;20067;-80
2023/01/25 12:36:41;;;;;;;11.95;8.05;;;8.60;82.80;;;;;;6292311;22;20532;-81
2023/01/25 12:39:18;;;;;;;11.95;8.25;;;8.60;82.80;;;;;;6293113;22;20010;-80
2023/01/25 12:41:59;;;;;;;11.68;8.02;;;8.60;82.80;;;;;;6298086;22;20022;-83
2023/01/25 12:44:41;;;;;;;11.95;8.30;;;8.60;82.70;;;;;;6294357;22;20433;-82
2023/01/25 12:47:21;;;;;;;11.32;7.75;;;8.60;82.80;;;;;;6290392;22;20011;-82
2023/01/25 12:49:53;;;;;;;12.80;8.95;;;8.60;82.80;;;;;;6290648;22;20464;-81
2023/01/25 12:52:26;;;;;;;12.02;8.50;;;8.60;82.70;;;;;;6294632;22;20002;-83
2023/01/25 12:54:55;;;;;;;12.63;8.68;;;8.60;82.70;;;;;;6294433;22;20014;-82
2023/01/25 12:57:40;;;;;;;12.68;8.60;;;8.60;82.70;;;;;;6296806;22;20102;-83
2023/01/25 13:00:24;;;;;;;12.75;8.85;;;8.60;82.70;;;;;;6295531;22;20014;-83
2023/01/25 13:03:15;;;;;;;13.07;8.90;;;8.60;82.70;;;;;;6296853;22;20015;-82
2023/01/25 13:05:50;;;;;;;11.90;8.05;;;8.60;82.80;;;;;;6295255;22;20064;-81